This is the latest recevied weather packets stored in our database for station/object W0NKY-13. If no packets are shown the sender has not sent any weather packets the latest 10 day(s).
| Time | Temp. | Humidity | Pressure | Rain* | Wind** | Luminosity | Snow |
|---|---|---|---|---|---|---|---|
| 1777529118 | 5.56° C | 92% | 1016.9 hPa | 0 mm | - | 0 W/m² | - |
| 1777528521 | 6.11° C | 90% | 1016.9 hPa | 0 mm | - | 0 W/m² | - |
| 1777527918 | 6.11° C | 89% | 1016.9 hPa | 0 mm | - | 0 W/m² | - |
| 1777526158 | 7.22° C | 88% | 1017 hPa | 0 mm | - | 0 W/m² | - |
| 1777524918 | 7.78° C | 86% | 1016.8 hPa | 0 mm | - | 0 W/m² | - |
| 1777521917 | 10.56° C | 75% | 1016.4 hPa | 0 mm | - | 0 W/m² | - |
| 1777518917 | 11.11° C | 74% | 1016.2 hPa | 0 mm | - | 0 W/m² | - |
| 1777517123 | 11.67° C | 73% | 1016 hPa | 0 mm | - | 0 W/m² | - |
| 1777515320 | 11.67° C | 74% | 1015.6 hPa | 0 mm | - | 0 W/m² | - |
| 1777509916 | 13.33° C | 70% | 1014.2 hPa | 0 mm | - | 0 W/m² | - |
| 1777503317 | 17.22° C | 61% | 1013.7 hPa | 0 mm | - | 100 W/m² | - |
| 1777498518 | 18.89° C | 62% | 1013 hPa | 0 mm | - | 463 W/m² | - |
| 1777496739 | 18.33° C | 64% | 1012.9 hPa | 0 mm | - | 282 W/m² | - |
| 1777495519 | 18.33° C | 65% | 1012.8 hPa | 0 mm | - | 450 W/m² | - |
| 1777485938 | 17.22° C | 81% | 1012.9 hPa | 0 mm | - | 134 W/m² | - |
| 1777485318 | 16.67° C | 84% | 1012.8 hPa | 0 mm | - | 222 W/m² | - |
| 1777483519 | 15.56° C | 87% | 1012.8 hPa | 0 mm | - | 54 W/m² | - |
| 1777482357 | 15.56° C | 87% | 1012.7 hPa | 0 mm | - | 98 W/m² | - |
| 1777481119 | 15° C | 90% | 1012.8 hPa | 0 mm | - | 97 W/m² | - |
| 1777479917 | 14.44° C | 91% | 1012.7 hPa | 0 mm | - | 91 W/m² | - |
| 1777479320 | 14.44° C | 91% | 1012.6 hPa | 0 mm | - | 110 W/m² | - |
| 1777466717 | 15° C | 93% | 1012.5 hPa | 0 mm | - | 15 W/m² | - |
| 1777464317 | 15° C | 94% | 1012.6 hPa | 0 mm | - | 8 W/m² | - |
| 1777462518 | 15° C | 94% | 1012.7 hPa | 0 mm | - | 3 W/m² | - |
| 1777460118 | 14.44° C | 95% | 1012.7 hPa | 0 mm | - | 1 W/m² | - |
* Rain latest hour (hover to see other rain measurements)
** Current wind speed in m/s (hover to see current wind gust speed)